Time;durP1;ratioP1;P1;durP2;ratioP2;P2;SDS_P1;SDS_P2;PMS_P1;PMS_P2;Temp;Humidity;BMP_temperature;BMP_pressure;BME280_temperature;BME280_humidity;BME280_pressure;Samples;Min_cycle;Max_cycle;Signal;HPM_P1;HPM_P2
2022/05/06 00:00:07;;;;;;;17.32;10.00;;;;;;;12.35;51.96;100728.63;1710918;81;34643;-66
2022/05/06 00:02:35;;;;;;;13.90;10.10;;;;;;;12.33;52.16;100717.52;1715137;82;25434;-66
2022/05/06 00:05:01;;;;;;;20.92;10.78;;;;;;;12.33;52.02;100718.88;1713229;81;27447;-66
2022/05/06 00:07:28;;;;;;;16.05;10.20;;;;;;;12.30;52.28;100711.36;1696524;82;25825;-66
2022/05/06 00:09:54;;;;;;;17.07;10.25;;;;;;;12.30;52.42;100714.63;1698259;81;25510;-66
2022/05/06 00:12:20;;;;;;;18.40;9.85;;;;;;;12.28;52.40;100709.52;1689988;82;25579;-66
2022/05/06 00:14:46;;;;;;;20.27;9.83;;;;;;;12.24;52.54;100703.12;1700762;81;25459;-66
2022/05/06 00:17:14;;;;;;;15.65;10.08;;;;;;;12.23;52.32;100704.22;1689513;82;27319;-66
2022/05/06 00:19:46;;;;;;;14.80;10.18;;;;;;;12.22;52.57;100696.39;1695030;81;25514;-65
2022/05/06 00:22:10;;;;;;;18.27;10.93;;;;;;;12.21;52.43;100695.60;1702554;81;25473;-68
2022/05/06 00:24:38;;;;;;;17.15;10.43;;;;;;;12.21;52.68;100686.64;1671374;84;25817;-66
2022/05/06 00:27:05;;;;;;;16.62;10.05;;;;;;;12.18;52.81;100682.66;1662788;84;25758;-66
2022/05/06 00:29:33;;;;;;;15.03;10.13;;;;;;;12.19;52.79;100684.80;1682223;84;27692;-66
2022/05/06 00:32:01;;;;;;;18.27;10.15;;;;;;;12.17;52.87;100686.47;1660212;84;25653;-66
2022/05/06 00:34:28;;;;;;;17.77;10.10;;;;;;;12.18;52.90;100688.64;1639873;85;25519;-65
2022/05/06 00:36:55;;;;;;;17.80;10.15;;;;;;;12.19;53.21;100684.27;1669938;84;25453;-68
2022/05/06 00:39:22;;;;;;;17.40;10.63;;;;;;;12.20;53.19;100686.42;1662826;83;25640;-66
2022/05/06 00:41:52;;;;;;;17.42;10.03;;;;;;;12.19;52.90;100677.49;1674043;83;28271;-68
2022/05/06 00:44:19;;;;;;;17.17;10.08;;;;;;;12.20;53.19;100679.64;1682550;83;25465;-66
2022/05/06 00:46:46;;;;;;;15.53;10.35;;;;;;;12.19;53.37;100675.31;1696640;84;25390;-68
2022/05/06 00:49:14;;;;;;;15.32;9.58;;;;;;;12.19;53.35;100673.42;1693579;82;25768;-66
2022/05/06 00:51:43;;;;;;;20.57;10.82;;;;;;;12.20;53.44;100672.86;1687460;82;25669;-65
2022/05/06 00:54:09;;;;;;;15.15;10.23;;;;;;;12.22;53.23;100676.05;1688725;82;27487;-66
2022/05/06 00:56:35;;;;;;;13.85;9.35;;;;;;;12.21;53.23;100669.84;1717280;81;25840;-66
2022/05/06 00:59:02;;;;;;;13.48;9.65;;;;;;;12.22;53.24;100671.98;1688161;82;25795;-66
2022/05/06 01:01:29;;;;;;;13.80;10.20;;;;;;;12.21;53.44;100673.91;1712781;81;25523;-66
2022/05/06 01:03:56;;;;;;;14.93;10.32;;;;;;;12.21;53.37;100672.55;1717378;82;25627;-66
2022/05/06 01:06:24;;;;;;;14.43;9.73;;;;;;;12.20;53.34;100673.65;1679693;84;27502;-66
2022/05/06 01:08:50;;;;;;;21.87;10.35;;;;;;;12.20;53.41;100675.00;1692232;82;25731;-66
2022/05/06 01:11:18;;;;;;;16.77;9.65;;;;;;;12.22;53.56;100684.19;1689742;82;25553;-66
2022/05/06 01:13:46;;;;;;;15.20;9.95;;;;;;;12.22;53.35;100686.91;1689941;82;25538;-66
2022/05/06 01:16:13;;;;;;;16.77;10.18;;;;;;;12.23;53.65;100680.38;1670014;83;25516;-66
2022/05/06 01:18:41;;;;;;;18.77;10.10;;;;;;;12.24;53.39;100684.14;1690298;82;27107;-66
2022/05/06 01:21:09;;;;;;;19.90;10.60;;;;;;;12.21;53.56;100677.98;1689038;82;25399;-66
2022/05/06 01:23:37;;;;;;;15.93;10.65;;;;;;;12.24;53.56;100686.85;1690152;82;25473;-66
2022/05/06 01:26:03;;;;;;;18.20;10.15;;;;;;;12.25;53.72;100688.44;1675195;85;25630;-66
2022/05/06 01:28:35;;;;;;;17.62;10.25;;;;;;;12.24;53.62;100691.45;1665827;83;25552;-68
2022/05/06 01:31:02;;;;;;;16.62;10.15;;;;;;;12.23;53.76;100686.59;1673460;82;27604;-67
2022/05/06 01:33:31;;;;;;;14.28;9.78;;;;;;;12.22;53.64;100690.41;1676501;84;25448;-66
2022/05/06 01:36:02;;;;;;;18.65;10.65;;;;;;;12.22;53.74;100694.47;1715857;81;25538;-66
2022/05/06 01:38:47;;;;;;;13.68;9.68;;;;;;;12.20;53.93;100695.34;1660979;84;25684;-67
2022/05/06 01:41:23;;;;;;;19.17;9.28;;;;;;;12.18;53.95;100690.80;1692789;82;25443;-67
2022/05/06 01:43:57;;;;;;;17.62;10.50;;;;;;;12.16;54.11;100688.95;1700543;82;27458;-68
2022/05/06 01:46:26;;;;;;;13.88;10.15;;;;;;;12.15;54.06;100678.64;1671355;84;27404;-67
2022/05/06 01:48:55;;;;;;;21.17;9.20;;;;;;;12.14;54.22;100681.13;1655054;84;25841;-67
2022/05/06 01:51:23;;;;;;;14.33;10.10;;;;;;;12.13;54.28;100688.20;1714530;81;25488;-67
2022/05/06 01:53:50;;;;;;;16.75;9.43;;;;;;;12.13;54.10;100682.78;1716533;81;25567;-68
2022/05/06 01:56:21;;;;;;;13.13;9.73;;;;;;;12.12;54.23;100685.24;1715922;81;27398;-67
2022/05/06 01:58:49;;;;;;;17.85;10.18;;;;;;;12.13;54.12;100684.14;1716787;82;25446;-67
2022/05/06 02:01:15;;;;;;;18.40;10.63;;;;;;;12.14;54.44;100685.76;1717089;81;25605;-67
2022/05/06 02:06:26;;;;;;;12.73;8.75;;;;;;;12.15;54.26;100680.00;1715403;82;25807;-67
2022/05/06 02:08:53;;;;;;;13.93;8.88;;;;;;;12.17;54.38;100685.11;1716122;82;26970;-67
2022/05/06 02:11:19;;;;;;;16.70;9.93;;;;;;;12.21;54.23;100694.78;1716953;81;25390;-67
2022/05/06 02:13:46;;;;;;;15.23;9.55;;;;;;;12.21;54.30;100694.25;1677286;84;25465;-67
2022/05/06 02:16:12;;;;;;;14.23;9.60;;;;;;;12.23;54.13;100693.38;1696744;82;25826;-66
2022/05/06 02:18:39;;;;;;;14.10;9.25;;;;;;;12.25;54.25;100694.42;1682047;82;25687;-67
2022/05/06 02:21:05;;;;;;;20.70;9.38;;;;;;;12.26;54.25;100695.47;1680674;83;28264;-67
2022/05/06 02:23:31;;;;;;;15.15;10.10;;;;;;;12.28;54.21;100694.60;1632177;86;25501;-67
2022/05/06 02:25:57;;;;;;;11.03;9.23;;;;;;;12.29;54.24;100690.79;1682145;84;25823;-67
2022/05/06 02:28:24;;;;;;;14.83;9.78;;;;;;;12.30;54.13;100686.95;1690397;82;26209;-67
2022/05/06 02:33:35;;;;;;;14.40;9.78;;;;;;;12.33;54.15;100682.27;1692158;82;27540;-66
2022/05/06 02:36:03;;;;;;;11.95;9.88;;;;;;;12.37;54.15;100684.36;1688207;82;32729;-66
2022/05/06 02:38:30;;;;;;;11.97;9.70;;;;;;;12.39;54.19;100683.48;1690187;82;25718;-67
2022/05/06 02:40:56;;;;;;;12.60;9.63;;;;;;;12.42;54.30;100690.44;1690238;82;25564;-67
2022/05/06 02:43:22;;;;;;;13.72;10.15;;;;;;;12.44;54.23;100686.06;1689138;82;25390;-67
2022/05/06 02:45:49;;;;;;;13.68;9.45;;;;;;;12.45;54.30;100691.19;1687723;82;27480;-67
2022/05/06 02:48:15;;;;;;;17.05;10.08;;;;;;;12.47;54.21;100697.66;1688059;82;27439;-67
2022/05/06 02:50:47;;;;;;;13.08;9.65;;;;;;;12.48;54.06;100685.14;1688455;82;25249;-67
2022/05/06 02:53:09;;;;;;;15.03;10.30;;;;;;;12.50;54.14;100695.69;1689200;82;25530;-67
2022/05/06 02:55:35;;;;;;;12.80;9.58;;;;;;;12.50;54.16;100691.05;1689207;82;25793;-67
2022/05/06 02:58:03;;;;;;;13.72;9.85;;;;;;;12.51;54.15;100691.84;1688020;82;28294;-67
2022/05/06 03:00:30;;;;;;;13.32;9.45;;;;;;;12.51;54.19;100697.27;1689846;82;25362;-67
2022/05/06 03:02:56;;;;;;;17.12;10.48;;;;;;;12.50;54.11;100695.12;1687679;82;25560;-65
2022/05/06 03:05:24;;;;;;;16.95;10.18;;;;;;;12.51;54.18;100701.34;1688678;82;26115;-65
2022/05/06 03:07:51;;;;;;;21.50;10.35;;;;;;;12.49;54.36;100706.28;1688340;82;25415;-65
2022/05/06 03:10:18;;;;;;;16.55;10.58;;;;;;;12.48;54.42;100720.41;1688196;82;27563;-68
2022/05/06 03:12:46;;;;;;;14.58;10.43;;;;;;;12.47;54.48;100718.00;1690036;82;25832;-68
2022/05/06 03:15:14;;;;;;;15.83;11.30;;;;;;;12.45;54.50;100708.02;1668829;84;25408;-68
2022/05/06 03:17:40;;;;;;;18.77;10.70;;;;;;;12.47;54.62;100716.64;1661957;84;25499;-66
2022/05/06 03:20:08;;;;;;;18.15;10.88;;;;;;;12.48;54.73;100720.95;1698643;81;25773;-68
2022/05/06 03:22:42;;;;;;;14.33;10.75;;;;;;;12.49;54.85;100714.42;1674591;84;27565;-65
2022/05/06 03:25:11;;;;;;;15.08;10.50;;;;;;;12.49;54.90;100706.28;1674788;84;25390;-66
2022/05/06 03:30:23;;;;;;;15.85;10.23;;;;;;;12.49;55.11;100707.07;1640908;86;27731;-67
2022/05/06 03:32:50;;;;;;;17.17;10.60;;;;;;;12.51;54.98;100706.77;1672468;83;25429;-67
2022/05/06 03:35:18;;;;;;;15.83;10.68;;;;;;;12.50;55.13;100707.33;1676401;84;27579;-67
2022/05/06 03:37:45;;;;;;;15.38;10.53;;;;;;;12.54;55.00;100719.71;1668417;83;25858;-68
2022/05/06 03:40:13;;;;;;;21.68;11.25;;;;;;;12.55;55.13;100715.89;1663769;83;25436;-67
2022/05/06 03:42:39;;;;;;;18.55;10.38;;;;;;;12.57;55.22;100721.80;1712333;82;25574;-67
2022/05/06 03:45:09;;;;;;;18.57;11.48;;;;;;;12.59;55.21;100723.64;1712533;82;25931;-67
2022/05/06 03:47:36;;;;;;;18.02;11.90;;;;;;;12.60;55.38;100722.55;1664399;84;27511;-66
2022/05/06 03:52:50;;;;;;;15.15;10.13;;;;;;;12.60;55.74;100732.58;1675586;84;25521;-67
2022/05/06 03:55:20;;;;;;;17.07;11.05;;;;;;;12.58;55.75;100734.27;1661640;83;26103;-67
2022/05/06 03:57:47;;;;;;;15.32;10.20;;;;;;;12.55;56.04;100736.25;1665353;84;25648;-67
2022/05/06 04:00:15;;;;;;;17.37;11.55;;;;;;;12.54;56.28;100735.20;1664374;84;28256;-67
2022/05/06 04:02:43;;;;;;;17.82;11.88;;;;;;;12.50;56.42;100738.53;1668516;84;25885;-67
2022/05/06 04:05:09;;;;;;;15.50;11.75;;;;;;;12.51;56.77;100744.75;1712036;81;25447;-67
2022/05/06 04:07:35;;;;;;;16.77;11.20;;;;;;;12.50;56.58;100753.45;1708596;81;25567;-67
2022/05/06 04:10:03;;;;;;;16.73;11.93;;;;;;;12.50;56.84;100752.09;1713170;81;25915;-67
2022/05/06 04:12:30;;;;;;;16.95;11.57;;;;;;;12.50;57.16;100759.44;1717601;82;27564;-67
2022/05/06 04:14:56;;;;;;;17.48;11.55;;;;;;;12.50;57.31;100758.87;1717132;81;25945;-67
2022/05/06 04:17:22;;;;;;;16.40;11.05;;;;;;;12.54;57.59;100764.48;1714321;82;29906;-67
2022/05/06 04:25:21;;;;;;;21.27;12.33;;;;;;;12.60;57.99;100763.78;1662880;83;27511;-66
2022/05/06 04:27:47;;;;;;;15.45;11.80;;;;;;;12.60;58.18;100767.32;1670232;84;25660;-66
2022/05/06 04:30:13;;;;;;;17.95;12.63;;;;;;;12.70;58.36;100786.05;1665075;83;30107;-66
2022/05/06 04:32:40;;;;;;;23.18;12.63;;;;;;;12.70;58.36;100786.05;1665672;84;25781;-66
2022/05/06 04:35:08;;;;;;;18.02;12.05;;;;;;;12.60;58.95;100767.32;1675499;84;25753;-66
2022/05/06 04:37:35;;;;;;;21.68;12.75;;;;;;;12.59;59.04;100768.98;1686794;84;27467;-66
2022/05/06 04:40:03;;;;;;;19.07;12.90;;;;;;;12.60;59.15;100771.39;1678415;84;25420;-66
2022/05/06 04:42:30;;;;;;;19.40;12.85;;;;;;;12.62;59.30;100777.87;1660258;84;25758;-66
2022/05/06 04:44:56;;;;;;;25.48;13.80;;;;;;;12.63;59.64;100775.38;1667523;84;25774;-66
2022/05/06 04:47:22;;;;;;;17.45;12.23;;;;;;;12.64;59.80;100781.06;1708272;81;25457;-66
2022/05/06 04:49:48;;;;;;;21.07;13.98;;;;;;;12.64;60.07;100775.64;1706454;81;28206;-66
2022/05/06 04:52:14;;;;;;;14.73;12.82;;;;;;;12.65;60.50;100782.65;1713817;81;25864;-66
2022/05/06 04:54:41;;;;;;;22.07;13.83;;;;;;;12.62;60.90;100780.58;1674600;84;25427;-66
2022/05/06 04:57:09;;;;;;;23.90;13.55;;;;;;;12.58;61.17;100780.41;1638925;85;25577;-66
2022/05/06 04:59:35;;;;;;;20.88;15.32;;;;;;;12.58;61.83;100775.52;1651815;84;25544;-66
2022/05/06 05:02:01;;;;;;;20.88;14.05;;;;;;;12.49;62.28;100768.12;1658457;84;27674;-65
2022/05/06 05:04:28;;;;;;;17.05;14.03;;;;;;;12.54;62.31;100775.33;1666351;84;25491;-67
2022/05/06 05:06:55;;;;;;;19.02;14.65;;;;;;;12.56;62.46;100784.52;1660234;84;25564;-66
2022/05/06 05:09:26;;;;;;;17.00;14.47;;;;;;;12.57;63.13;100785.58;1664957;84;25871;-68
2022/05/06 05:11:53;;;;;;;18.98;14.13;;;;;;;12.57;63.51;100782.86;1679335;83;25451;-66
2022/05/06 05:14:19;;;;;;;18.70;14.38;;;;;;;12.59;63.89;100781.20;1687031;84;27507;-66
2022/05/06 05:16:45;;;;;;;25.35;14.87;;;;;;;12.59;64.01;100781.98;1676032;84;25989;-66
2022/05/06 05:19:11;;;;;;;19.25;15.88;;;;;;;12.59;65.04;100779.84;1711482;82;29663;-66
2022/05/06 05:21:37;;;;;;;22.48;16.37;;;;;;;12.63;64.61;100780.81;1718220;81;25527;-66
2022/05/06 05:24:05;;;;;;;22.70;16.82;;;;;;;12.66;64.95;100785.06;1717426;82;25402;-66
2022/05/06 05:26:31;;;;;;;26.00;16.52;;;;;;;12.70;65.23;100792.02;1676817;84;27557;-66
2022/05/06 05:28:57;;;;;;;25.25;15.23;;;;;;;12.74;65.37;100793.58;1667505;84;25539;-67
2022/05/06 05:31:24;;;;;;;23.70;16.27;;;;;;;12.78;65.31;100785.05;1702266;81;25530;-66
2022/05/06 05:33:52;;;;;;;29.87;16.23;;;;;;;12.84;65.56;100786.53;1702089;82;26216;-66
2022/05/06 05:36:20;;;;;;;23.07;16.20;;;;;;;12.90;65.97;100789.33;1689966;82;25852;-66
2022/05/06 05:38:47;;;;;;;20.62;16.00;;;;;;;12.95;66.24;100787.05;1689955;81;28124;-66
2022/05/06 05:41:13;;;;;;;24.02;18.10;;;;;;;13.01;66.50;100781.17;1698292;82;25415;-66
2022/05/06 05:49:08;;;;;;;26.80;17.52;;;;;;;13.25;66.67;100794.92;1650336;86;25767;-66
2022/05/06 05:51:34;;;;;;;22.13;17.25;;;;;;;13.34;66.66;100791.69;1669017;83;28179;-66
2022/05/06 05:54:00;;;;;;;23.27;18.73;;;;;;;13.46;66.91;100800.59;1674731;83;33351;-66
2022/05/06 05:56:27;;;;;;;26.35;17.45;;;;;;;13.54;66.92;100800.39;1664607;84;25598;-66
2022/05/06 05:58:53;;;;;;;22.98;16.40;;;;;;;13.63;66.88;100804.70;1712872;82;26150;-66
2022/05/06 06:01:19;;;;;;;24.77;17.42;;;;;;;13.75;66.68;100808.73;1683091;84;25445;-66
2022/05/06 06:03:46;;;;;;;27.25;19.05;;;;;;;13.88;66.86;100815.16;1657834;86;27472;-66
2022/05/06 06:06:12;;;;;;;29.37;18.92;;;;;;;13.97;66.45;100811.88;1683912;82;25630;-66
2022/05/06 06:08:38;;;;;;;26.50;19.02;;;;;;;14.07;66.25;100811.56;1669273;82;25785;-66
2022/05/06 06:11:04;;;;;;;27.87;19.77;;;;;;;14.16;66.48;100815.06;1679317;82;25733;-66
2022/05/06 06:13:31;;;;;;;27.90;21.55;;;;;;;14.28;66.37;100810.91;1690739;84;25503;-66
2022/05/06 06:15:57;;;;;;;28.20;20.65;;;;;;;14.37;66.22;100805.71;1683483;82;27537;-66
2022/05/06 06:18:27;;;;;;;32.55;20.92;;;;;;;14.49;66.24;100805.06;1675101;83;26497;-66
2022/05/06 06:20:57;;;;;;;27.62;21.93;;;;;;;14.66;66.19;100812.97;1686984;83;25738;-67
2022/05/06 06:23:24;;;;;;;31.85;23.50;;;;;;;14.71;65.36;100819.05;1711705;81;26033;-67
2022/05/06 06:25:50;;;;;;;28.73;20.85;;;;;;;14.80;65.39;100823.69;1690572;83;25762;-66
2022/05/06 06:28:16;;;;;;;31.77;21.65;;;;;;;14.85;65.18;100813.98;1723265;81;27696;-66
2022/05/06 06:30:42;;;;;;;32.73;21.07;;;;;;;14.91;65.19;100818.93;1726539;81;25634;-66
2022/05/06 06:33:09;;;;;;;29.35;21.85;;;;;;;14.89;64.60;100817.07;1712440;81;26320;-66
2022/05/06 06:35:34;;;;;;;30.90;21.25;;;;;;;14.95;64.47;100821.80;1705539;81;25816;-66
2022/05/06 06:38:01;;;;;;;35.08;21.75;;;;;;;14.97;64.19;100820.91;1714136;83;25646;-66
2022/05/06 06:40:27;;;;;;;32.85;21.82;;;;;;;15.01;63.85;100823.20;1721003;82;28159;-66
2022/05/06 06:42:54;;;;;;;33.28;22.22;;;;;;;15.06;64.09;100824.95;1716394;82;27430;-65
2022/05/06 06:45:20;;;;;;;32.95;23.67;;;;;;;15.10;63.80;100831.34;1717015;83;25836;-65
2022/05/06 06:47:46;;;;;;;25.92;21.15;;;;;;;15.16;63.82;100831.41;1718839;82;25734;-65
2022/05/06 06:50:12;;;;;;;27.65;20.95;;;;;;;15.24;63.65;100827.85;1720953;83;25462;-67
2022/05/06 06:52:38;;;;;;;29.27;20.45;;;;;;;15.30;63.34;100837.42;1729057;82;27581;-66
2022/05/06 06:55:05;;;;;;;25.88;20.30;;;;;;;15.33;63.14;100834.63;1725752;81;25964;-66
2022/05/06 06:57:32;;;;;;;31.23;21.05;;;;;;;15.36;62.92;100831.25;1722258;82;25484;-66
2022/05/06 06:59:58;;;;;;;30.35;20.60;;;;;;;15.34;62.57;100839.50;1725369;82;26163;-66
2022/05/06 07:02:24;;;;;;;28.20;19.75;;;;;;;15.35;62.42;100837.02;1737331;82;25467;-66
2022/05/06 07:04:51;;;;;;;29.00;21.05;;;;;;;15.31;62.30;100832.80;1733852;82;28203;-66
2022/05/06 07:12:47;;;;;;;30.35;19.98;;;;;;;15.28;62.30;100845.70;1731386;81;25604;-65
2022/05/06 07:15:13;;;;;;;27.82;19.30;;;;;;;15.37;62.64;100849.75;1722355;82;25496;-66
2022/05/06 07:17:39;;;;;;;24.63;20.17;;;;;;;15.43;62.59;100836.98;1722190;82;28352;-65
2022/05/06 07:20:06;;;;;;;29.52;19.17;;;;;;;15.53;62.54;100839.91;1718810;82;32714;-65
2022/05/06 07:22:32;;;;;;;28.83;19.07;;;;;;;15.66;62.38;100841.59;1709754;82;25476;-65
2022/05/06 07:24:58;;;;;;;28.02;19.48;;;;;;;15.79;62.38;100847.16;1652513;86;25746;-66
2022/05/06 07:27:25;;;;;;;34.75;22.25;;;;;;;15.96;62.33;100844.89;1668490;84;26331;-65
2022/05/06 07:29:51;;;;;;;34.48;21.00;;;;;;;16.13;61.85;100852.14;1677358;84;27696;-65
2022/05/06 07:32:18;;;;;;;27.58;18.73;;;;;;;16.34;61.73;100846.67;1674600;83;25575;-65
2022/05/06 07:34:44;;;;;;;28.35;18.50;;;;;;;16.62;61.58;100849.63;1692875;84;25701;-65
2022/05/06 07:37:10;;;;;;;26.95;17.12;;;;;;;16.89;60.84;100847.45;1668846;82;25901;-65
2022/05/06 07:39:36;;;;;;;26.90;18.77;;;;;;;17.10;59.88;100850.13;1675922;82;25718;-65
2022/05/06 07:42:04;;;;;;;24.25;17.82;;;;;;;17.27;59.12;100849.11;1682538;84;28393;-65
2022/05/06 07:44:30;;;;;;;22.33;17.50;;;;;;;17.41;59.08;100850.14;1694903;84;25683;-65
2022/05/06 07:46:57;;;;;;;25.27;16.90;;;;;;;17.63;58.43;100842.83;1669734;82;25817;-65
2022/05/06 07:49:24;;;;;;;32.10;16.27;;;;;;;17.77;57.76;100845.20;1682537;84;25521;-66
2022/05/06 07:51:52;;;;;;;30.65;16.85;;;;;;;17.86;57.12;100849.18;1710518;81;25596;-65
2022/05/06 07:54:18;;;;;;;25.97;16.35;;;;;;;18.00;56.42;100851.60;1742836;81;27533;-65
2022/05/06 07:56:45;;;;;;;21.17;15.53;;;;;;;18.05;56.03;100857.63;1732957;81;25933;-65
2022/05/06 07:59:11;;;;;;;21.60;15.88;;;;;;;18.10;55.43;100858.75;1724686;82;26096;-65
2022/05/06 08:04:33;;;;;;;21.65;14.93;;;;;;;18.21;55.00;100865.11;1705475;82;25633;-65
2022/05/06 08:07:00;;;;;;;21.37;15.38;;;;;;;18.27;54.78;100867.84;1707267;82;29604;-64
2022/05/06 08:09:28;;;;;;;26.52;16.62;;;;;;;18.32;54.52;100872.25;1708938;82;25630;-65
2022/05/06 08:11:54;;;;;;;22.73;15.10;;;;;;;18.48;54.67;100871.17;1709958;82;25656;-65
2022/05/06 08:14:21;;;;;;;22.30;15.88;;;;;;;18.91;55.43;100877.04;1682621;84;25723;-64
2022/05/06 08:16:50;;;;;;;22.62;15.90;;;;;;;19.23;53.14;100879.23;1686909;82;25418;-65
2022/05/06 08:19:20;;;;;;;35.45;14.98;;;;;;;19.30;52.13;100881.36;1682218;82;27450;-65
2022/05/06 08:21:46;;;;;;;21.02;14.65;;;;;;;19.35;52.07;100877.57;1679029;83;25665;-65
2022/05/06 08:24:14;;;;;;;29.92;19.92;;;;;;;19.46;51.98;100876.45;1704431;82;25657;-65
2022/05/06 08:26:43;;;;;;;28.80;17.65;;;;;;;19.58;51.51;100882.64;1709751;81;25605;-66
2022/05/06 08:29:11;;;;;;;23.63;15.43;;;;;;;19.64;51.04;100875.51;1714405;81;25740;-65
2022/05/06 08:31:38;;;;;;;20.90;14.33;;;;;;;19.66;50.67;100883.59;1700928;81;27491;-66
2022/05/06 08:34:08;;;;;;;26.77;15.68;;;;;;;19.60;50.25;100882.29;1714773;82;27456;-64
2022/05/06 08:36:40;;;;;;;19.92;14.85;;;;;;;19.65;50.33;100883.39;1714403;81;25736;-64
2022/05/06 08:39:10;;;;;;;24.75;13.78;;;;;;;19.74;50.06;100885.94;1703835;81;25616;-64
2022/05/06 08:41:38;;;;;;;18.90;14.73;;;;;;;19.93;50.46;100883.84;1685607;84;26185;-64
2022/05/06 08:52:39;;;;;;;19.32;15.70;;;;;;;20.70;48.10;100896.86;1666788;82;26254;-63
2022/05/06 08:55:07;;;;;;;20.17;15.30;;;;;;;20.59;47.49;100888.16;1657760;82;26395;-63
2022/05/06 08:57:35;;;;;;;25.95;16.45;;;;;;;20.45;47.46;100892.21;1663123;82;28327;-65
2022/05/06 09:00:10;;;;;;;24.90;18.10;;;;;;;20.40;47.88;100884.81;1695529;84;25829;-64
2022/05/06 09:02:40;;;;;;;24.45;16.85;;;;;;;20.49;47.67;100885.41;1664607;82;25570;-64
2022/05/06 09:05:20;;;;;;;23.45;16.52;;;;;;;20.40;47.74;100886.19;1663171;82;25560;-64
2022/05/06 09:07:58;;;;;;;22.65;15.30;;;;;;;20.41;48.24;100883.08;1658606;82;25881;-63
2022/05/06 09:10:27;;;;;;;23.77;16.37;;;;;;;20.68;48.30;100883.25;1665066;82;27530;-64
2022/05/06 09:12:59;;;;;;;22.10;14.63;;;;;;;20.82;47.85;100886.84;1663570;82;25433;-63
2022/05/06 09:18:19;;;;;;;24.20;15.58;;;;;;;21.24;47.53;100880.52;1685999;84;25687;-63
2022/05/06 09:20:49;;;;;;;17.82;14.20;;;;;;;21.50;47.82;100887.25;1674737;82;25667;-63
2022/05/06 09:23:26;;;;;;;28.17;16.12;;;;;;;22.11;47.19;100877.90;1672007;82;28229;-63
2022/05/06 09:25:54;;;;;;;28.25;20.72;;;;;;;22.56;46.88;100888.53;1665452;82;26060;-62
2022/05/06 09:28:29;;;;;;;21.77;14.95;;;;;;;23.04;45.47;100887.05;1665357;82;25312;-64
2022/05/06 09:31:06;;;;;;;19.98;14.55;;;;;;;23.35;44.58;100889.91;1663195;82;25446;-64
2022/05/06 09:33:42;;;;;;;18.42;14.65;;;;;;;23.84;44.00;100885.16;1658281;82;25801;-67
2022/05/06 09:36:28;;;;;;;18.00;13.45;;;;;;;24.29;42.50;100890.51;1676408;83;28184;-66
2022/05/06 09:39:10;;;;;;;17.10;13.35;;;;;;;24.34;41.63;100877.70;1652139;82;38356;-65
2022/05/06 09:41:41;;;;;;;19.42;13.25;;;;;;;24.43;41.07;100882.26;1641977;84;25684;-62
2022/05/06 09:44:10;;;;;;;14.58;13.08;;;;;;;24.59;40.44;100881.36;1656701;84;26459;-63
2022/05/06 09:46:37;;;;;;;16.95;13.78;;;;;;;24.68;40.55;100876.05;1645436;85;25727;-63
2022/05/06 09:49:05;;;;;;;16.75;13.70;;;;;;;24.83;40.32;100875.50;1651251;85;28275;-63
2022/05/06 09:51:34;;;;;;;20.62;12.85;;;;;;;25.00;40.53;100878.09;1688442;84;25816;-63
2022/05/06 09:54:03;;;;;;;22.87;15.08;;;;;;;25.41;39.98;100881.88;1687910;84;25695;-63
2022/05/06 09:56:30;;;;;;;19.65;15.50;;;;;;;25.65;39.65;100876.89;1677342;83;25690;-63
2022/05/06 09:58:57;;;;;;;21.33;14.95;;;;;;;25.82;39.33;100871.72;1649190;86;25671;-63
2022/05/06 10:01:24;;;;;;;18.37;14.95;;;;;;;25.79;38.30;100871.13;1697551;84;27473;-63
2022/05/06 10:03:54;;;;;;;18.27;13.53;;;;;;;25.76;38.28;100869.16;1684183;83;25480;-63
2022/05/06 10:06:25;;;;;;;17.42;12.90;;;;;;;25.78;38.26;100866.77;1640456;84;25834;-64
2022/05/06 10:08:56;;;;;;;17.23;14.18;;;;;;;25.80;38.10;100865.80;1677026;83;25419;-64
2022/05/06 10:11:28;;;;;;;18.32;13.80;;;;;;;25.80;37.82;100865.19;1678575;83;25746;-64
2022/05/06 10:13:58;;;;;;;15.85;13.85;;;;;;;25.80;37.55;100867.96;1634460;84;27539;-65
2022/05/06 10:16:37;;;;;;;13.83;12.43;;;;;;;25.80;37.45;100866.58;1675445;83;26255;-65
2022/05/06 10:19:04;;;;;;;18.40;13.85;;;;;;;25.87;37.41;100870.70;1644191;84;25746;-65
2022/05/06 10:21:48;;;;;;;16.57;13.83;;;;;;;25.86;37.54;100864.17;1663261;84;25762;-66
2022/05/06 10:24:15;;;;;;;22.80;14.00;;;;;;;25.99;37.96;100857.05;1694861;84;26424;-66
2022/05/06 10:26:47;;;;;;;30.62;15.40;;;;;;;26.25;37.46;100870.20;1690737;84;27641;-67
2022/05/06 10:34:29;;;;;;;37.00;15.93;;;;;;;26.44;37.35;100867.54;1831818;77;26298;-65
2022/05/06 10:37:01;;;;;;;18.05;13.65;;;;;;;26.57;37.08;100856.78;1724426;83;26298;-65
2022/05/06 10:39:36;;;;;;;15.23;13.50;;;;;;;26.51;36.48;100870.87;1662759;83;27309;-65
2022/05/06 10:42:18;;;;;;;19.37;14.70;;;;;;;26.35;36.39;100863.04;1678568;84;25789;-66
2022/05/06 10:44:49;;;;;;;17.32;13.15;;;;;;;26.35;36.35;100858.88;1663714;86;25906;-62
2022/05/06 10:47:24;;;;;;;14.95;12.68;;;;;;;26.34;36.69;100854.52;1663147;86;25656;-61
2022/05/06 10:49:53;;;;;;;19.35;14.83;;;;;;;26.32;36.37;100854.14;1690680;84;25636;-65
2022/05/06 10:52:28;;;;;;;12.93;11.18;;;;;;;26.16;36.63;100858.77;1690768;84;28223;-64
2022/05/06 10:55:01;;;;;;;17.48;14.50;;;;;;;26.23;36.56;100859.52;1688556;84;27508;-64
2022/05/06 10:57:52;;;;;;;16.10;13.05;;;;;;;26.25;36.06;100855.73;1690708;84;25715;-63
2022/05/06 11:00:21;;;;;;;13.78;12.15;;;;;;;25.99;36.06;100855.66;1687249;84;25695;-67
2022/05/06 11:02:48;;;;;;;13.25;12.00;;;;;;;25.76;36.12;100856.69;1677572;83;25758;-66
2022/05/06 11:05:17;;;;;;;13.18;11.33;;;;;;;25.57;36.35;100855.93;1681388;85;27462;-64
2022/05/06 11:07:46;;;;;;;13.88;12.43;;;;;;;25.42;36.38;100848.83;1681436;85;25414;-64
2022/05/06 11:10:25;;;;;;;26.80;12.63;;;;;;;25.29;36.37;100849.25;1681637;85;25681;-62
2022/05/06 11:12:57;;;;;;;;;;;;;;;25.05;36.59;100852.19;1684140;83;25847;-63
2022/05/06 11:15:29;;;;;;;15.23;12.65;;;;;;;25.00;37.30;100855.95;1679844;85;25705;-64
2022/05/06 11:17:59;;;;;;;14.38;11.93;;;;;;;25.09;36.93;100860.49;1679773;85;27567;-66
2022/05/06 11:20:32;;;;;;;20.20;13.95;;;;;;;25.05;37.09;100859.11;1681538;85;25631;-63
2022/05/06 11:23:05;;;;;;;16.57;13.62;;;;;;;25.18;37.03;100862.27;1681404;85;25665;-65
2022/05/06 11:25:37;;;;;;;16.45;12.75;;;;;;;25.54;37.59;100853.98;1681442;85;25714;-66
2022/05/06 11:28:15;;;;;;;14.93;12.78;;;;;;;26.03;37.50;100848.72;1681750;83;25638;-65
2022/05/06 11:30:48;;;;;;;18.92;13.90;;;;;;;26.24;36.99;100847.85;1681957;85;27622;-65
2022/05/06 11:33:31;;;;;;;15.55;13.15;;;;;;;26.15;35.83;100840.55;1678525;84;25677;-64
2022/05/06 11:36:03;;;;;;;26.93;13.22;;;;;;;26.06;35.94;100847.92;1671748;85;25307;-65
2022/05/06 11:38:39;;;;;;;15.83;11.28;;;;;;;25.98;36.23;100847.14;1641846;84;25851;-65
2022/05/06 11:41:12;;;;;;;14.78;10.78;;;;;;;26.27;36.20;100838.13;1643379;86;25309;-66
2022/05/06 11:43:40;;;;;;;12.95;11.75;;;;;;;26.26;35.90;100838.53;1642247;86;28326;-64
2022/05/06 11:48:53;;;;;;;14.20;11.18;;;;;;;26.08;35.08;100839.98;1681249;85;25332;-65
2022/05/06 11:51:24;;;;;;;14.03;11.22;;;;;;;25.88;35.20;100836.28;1681141;83;25627;-65
2022/05/06 11:53:52;;;;;;;20.12;10.45;;;;;;;25.73;35.24;100841.06;1680686;84;25775;-64
2022/05/06 11:56:29;;;;;;;15.03;9.70;;;;;;;25.60;35.17;100837.14;1681130;84;28018;-64
2022/05/06 11:59:00;;;;;;;11.10;8.90;;;;;;;25.51;34.80;100834.00;1681181;84;25632;-66
2022/05/06 12:32:33;;;;;;;16.75;12.45;;;;;;;26.12;33.60;100821.95;1854814;76;25666;-66
2022/05/06 12:35:08;;;;;;;16.37;12.05;;;;;;;25.60;34.27;100816.36;1814438;78;25779;-64